sensor_id;sensor_type;location;lat;lon;timestamp;pressure;altitude;pressure_sealevel;temperature;humidity
27210;BME280;14721;42.668;23.386;2023-04-04T00:01:08;93876.09;;;8.13;100.00
27210;BME280;14721;42.668;23.386;2023-04-04T00:03:34;93867.00;;;8.15;100.00
27210;BME280;14721;42.668;23.386;2023-04-04T00:05:59;93877.59;;;8.26;100.00
27210;BME280;14721;42.668;23.386;2023-04-04T00:08:25;93878.31;;;8.28;100.00
27210;BME280;14721;42.668;23.386;2023-04-04T00:10:56;93885.16;;;8.01;100.00
27210;BME280;14721;42.668;23.386;2023-04-04T00:13:22;93871.81;;;7.91;100.00
27210;BME280;14721;42.668;23.386;2023-04-04T00:15:50;93871.25;;;7.88;100.00
27210;BME280;14721;42.668;23.386;2023-04-04T00:18:15;93886.41;;;8.06;100.00
27210;BME280;14721;42.668;23.386;2023-04-04T00:20:41;93894.00;;;8.11;100.00
27210;BME280;14721;42.668;23.386;2023-04-04T00:23:06;93879.03;;;8.10;100.00
27210;BME280;14721;42.668;23.386;2023-04-04T00:25:32;93893.19;;;8.10;100.00
27210;BME280;14721;42.668;23.386;2023-04-04T00:27:57;93892.06;;;8.13;100.00
27210;BME280;14721;42.668;23.386;2023-04-04T00:30:25;93872.72;;;8.11;100.00
27210;BME280;14721;42.668;23.386;2023-04-04T00:32:50;93881.94;;;8.07;100.00
27210;BME280;14721;42.668;23.386;2023-04-04T00:35:16;93884.66;;;8.16;100.00
27210;BME280;14721;42.668;23.386;2023-04-04T00:37:41;93886.88;;;8.11;100.00
27210;BME280;14721;42.668;23.386;2023-04-04T00:40:07;93866.72;;;8.09;100.00
27210;BME280;14721;42.668;23.386;2023-04-04T00:42:33;93856.81;;;8.20;100.00
27210;BME280;14721;42.668;23.386;2023-04-04T00:44:59;93863.19;;;8.38;100.00
27210;BME280;14721;42.668;23.386;2023-04-04T00:47:28;93848.50;;;8.44;100.00
27210;BME280;14721;42.668;23.386;2023-04-04T00:49:54;93847.97;;;8.59;100.00
27210;BME280;14721;42.668;23.386;2023-04-04T00:52:21;93850.34;;;8.53;100.00
27210;BME280;14721;42.668;23.386;2023-04-04T00:54:47;93845.97;;;8.42;100.00
27210;BME280;14721;42.668;23.386;2023-04-04T00:57:13;93840.50;;;8.34;100.00
27210;BME280;14721;42.668;23.386;2023-04-04T00:59:42;93848.63;;;8.33;100.00
27210;BME280;14721;42.668;23.386;2023-04-04T01:02:08;93837.81;;;8.25;100.00
27210;BME280;14721;42.668;23.386;2023-04-04T01:04:36;93848.63;;;8.33;100.00
27210;BME280;14721;42.668;23.386;2023-04-04T01:07:02;93850.13;;;8.26;100.00
27210;BME280;14721;42.668;23.386;2023-04-04T01:09:28;93854.34;;;8.28;100.00
27210;BME280;14721;42.668;23.386;2023-04-04T01:11:55;93854.22;;;8.30;100.00
27210;BME280;14721;42.668;23.386;2023-04-04T01:14:21;93853.22;;;8.31;100.00
27210;BME280;14721;42.668;23.386;2023-04-04T01:16:49;93846.78;;;8.24;100.00
27210;BME280;14721;42.668;23.386;2023-04-04T01:19:21;93864.41;;;8.25;100.00
27210;BME280;14721;42.668;23.386;2023-04-04T01:21:50;93852.47;;;8.19;100.00
27210;BME280;14721;42.668;23.386;2023-04-04T01:24:17;93865.53;;;8.32;100.00
27210;BME280;14721;42.668;23.386;2023-04-04T01:26:43;93863.38;;;8.46;100.00
27210;BME280;14721;42.668;23.386;2023-04-04T01:29:11;93868.00;;;8.54;100.00
27210;BME280;14721;42.668;23.386;2023-04-04T01:31:39;93867.03;;;8.55;100.00
27210;BME280;14721;42.668;23.386;2023-04-04T01:34:11;93869.97;;;8.52;100.00
27210;BME280;14721;42.668;23.386;2023-04-04T01:39:27;93864.47;;;8.44;100.00
27210;BME280;14721;42.668;23.386;2023-04-04T01:41:56;93862.06;;;8.41;100.00
27210;BME280;14721;42.668;23.386;2023-04-04T01:44:35;93855.19;;;8.29;100.00
27210;BME280;14721;42.668;23.386;2023-04-04T01:47:19;93857.16;;;8.27;100.00
27210;BME280;14721;42.668;23.386;2023-04-04T01:49:44;93848.09;;;8.09;100.00
27210;BME280;14721;42.668;23.386;2023-04-04T01:52:10;93848.25;;;8.17;100.00
27210;BME280;14721;42.668;23.386;2023-04-04T01:54:35;93846.78;;;8.24;100.00
27210;BME280;14721;42.668;23.386;2023-04-04T01:57:01;93836.47;;;8.10;100.00
27210;BME280;14721;42.668;23.386;2023-04-04T01:59:27;93840.06;;;7.99;100.00
27210;BME280;14721;42.668;23.386;2023-04-04T02:01:53;93839.19;;;7.89;100.00
27210;BME280;14721;42.668;23.386;2023-04-04T02:04:18;93829.28;;;8.01;100.00
27210;BME280;14721;42.668;23.386;2023-04-04T02:06:44;93834.53;;;8.12;100.00
27210;BME280;14721;42.668;23.386;2023-04-04T02:09:09;93843.72;;;8.08;100.00
27210;BME280;14721;42.668;23.386;2023-04-04T02:11:35;93831.69;;;8.04;100.00
27210;BME280;14721;42.668;23.386;2023-04-04T02:14:01;93849.06;;;8.08;100.00
27210;BME280;14721;42.668;23.386;2023-04-04T02:16:27;93853.19;;;7.91;100.00
27210;BME280;14721;42.668;23.386;2023-04-04T02:18:53;93841.22;;;7.76;100.00
27210;BME280;14721;42.668;23.386;2023-04-04T02:21:19;93837.41;;;7.69;100.00
27210;BME280;14721;42.668;23.386;2023-04-04T02:23:45;93830.97;;;7.62;100.00
27210;BME280;14721;42.668;23.386;2023-04-04T02:26:10;93826.63;;;7.61;100.00
27210;BME280;14721;42.668;23.386;2023-04-04T02:28:37;93817.22;;;7.57;100.00
27210;BME280;14721;42.668;23.386;2023-04-04T02:31:04;93831.75;;;7.53;100.00
27210;BME280;14721;42.668;23.386;2023-04-04T02:33:29;93821.97;;;7.53;100.00
27210;BME280;14721;42.668;23.386;2023-04-04T02:35:59;93832.00;;;7.50;100.00
27210;BME280;14721;42.668;23.386;2023-04-04T02:38:25;93835.13;;;7.55;100.00
27210;BME280;14721;42.668;23.386;2023-04-04T02:40:51;93835.81;;;7.57;100.00
27210;BME280;14721;42.668;23.386;2023-04-04T02:43:16;93841.31;;;7.65;100.00
27210;BME280;14721;42.668;23.386;2023-04-04T02:45:42;93843.94;;;7.86;100.00
27210;BME280;14721;42.668;23.386;2023-04-04T02:48:07;93834.44;;;7.93;100.00
27210;BME280;14721;42.668;23.386;2023-04-04T02:50:35;93836.81;;;7.96;100.00
27210;BME280;14721;42.668;23.386;2023-04-04T02:53:03;93844.53;;;7.99;100.00
27210;BME280;14721;42.668;23.386;2023-04-04T02:55:28;93842.59;;;8.01;100.00
27210;BME280;14721;42.668;23.386;2023-04-04T02:57:54;93844.94;;;7.94;100.00
27210;BME280;14721;42.668;23.386;2023-04-04T03:00:20;93830.19;;;7.81;100.00
27210;BME280;14721;42.668;23.386;2023-04-04T03:02:54;93831.91;;;7.91;100.00
27210;BME280;14721;42.668;23.386;2023-04-04T03:05:22;93832.34;;;7.96;100.00
27210;BME280;14721;42.668;23.386;2023-04-04T03:07:52;93823.66;;;7.94;100.00
27210;BME280;14721;42.668;23.386;2023-04-04T03:10:25;93825.91;;;7.99;100.00
27210;BME280;14721;42.668;23.386;2023-04-04T03:12:52;93826.38;;;8.04;100.00
27210;BME280;14721;42.668;23.386;2023-04-04T03:15:26;93823.31;;;8.08;100.00
27210;BME280;14721;42.668;23.386;2023-04-04T03:17:52;93823.31;;;8.08;100.00
27210;BME280;14721;42.668;23.386;2023-04-04T03:20:19;93820.38;;;8.11;100.00
27210;BME280;14721;42.668;23.386;2023-04-04T03:22:46;93830.34;;;8.19;100.00
27210;BME280;14721;42.668;23.386;2023-04-04T03:25:12;93832.94;;;8.30;100.00
27210;BME280;14721;42.668;23.386;2023-04-04T03:27:39;93828.19;;;8.43;100.00
27210;BME280;14721;42.668;23.386;2023-04-04T03:30:08;93825.41;;;8.44;100.00
27210;BME280;14721;42.668;23.386;2023-04-04T03:32:37;93819.53;;;8.50;100.00
27210;BME280;14721;42.668;23.386;2023-04-04T03:35:06;93819.25;;;8.53;100.00
27210;BME280;14721;42.668;23.386;2023-04-04T03:37:32;93829.75;;;8.55;100.00
27210;BME280;14721;42.668;23.386;2023-04-04T03:39:58;93832.13;;;8.58;100.00
27210;BME280;14721;42.668;23.386;2023-04-04T03:42:24;93830.03;;;8.71;100.00
27210;BME280;14721;42.668;23.386;2023-04-04T03:44:51;93836.38;;;8.89;100.00
27210;BME280;14721;42.668;23.386;2023-04-04T03:47:19;93841.28;;;8.74;100.00
27210;BME280;14721;42.668;23.386;2023-04-04T03:49:45;93836.91;;;8.64;100.00
27210;BME280;14721;42.668;23.386;2023-04-04T03:52:12;93837.16;;;8.51;100.00
27210;BME280;14721;42.668;23.386;2023-04-04T03:54:37;93840.00;;;8.59;100.00
27210;BME280;14721;42.668;23.386;2023-04-04T03:57:03;93839.69;;;8.53;100.00
27210;BME280;14721;42.668;23.386;2023-04-04T03:59:29;93829.03;;;8.43;100.00
27210;BME280;14721;42.668;23.386;2023-04-04T04:01:55;93842.50;;;8.42;100.00
27210;BME280;14721;42.668;23.386;2023-04-04T04:04:20;93837.31;;;8.59;100.00
27210;BME280;14721;42.668;23.386;2023-04-04T04:06:45;93823.47;;;8.65;100.00
27210;BME280;14721;42.668;23.386;2023-04-04T04:09:13;93816.88;;;8.79;100.00
27210;BME280;14721;42.668;23.386;2023-04-04T04:11:38;93836.78;;;8.94;100.00
27210;BME280;14721;42.668;23.386;2023-04-04T04:14:04;93829.66;;;8.94;100.00
27210;BME280;14721;42.668;23.386;2023-04-04T04:16:29;93831.56;;;8.54;100.00
27210;BME280;14721;42.668;23.386;2023-04-04T04:18:55;93831.69;;;8.53;100.00
27210;BME280;14721;42.668;23.386;2023-04-04T04:21:20;93834.38;;;8.53;100.00
27210;BME280;14721;42.668;23.386;2023-04-04T04:23:46;93844.06;;;8.54;100.00
27210;BME280;14721;42.668;23.386;2023-04-04T04:26:11;93849.09;;;8.66;100.00
27210;BME280;14721;42.668;23.386;2023-04-04T04:28:37;93853.44;;;8.58;100.00
27210;BME280;14721;42.668;23.386;2023-04-04T04:31:06;93854.41;;;8.66;100.00
27210;BME280;14721;42.668;23.386;2023-04-04T04:33:33;93855.78;;;8.51;100.00
27210;BME280;14721;42.668;23.386;2023-04-04T04:36:02;93858.19;;;8.54;100.00
27210;BME280;14721;42.668;23.386;2023-04-04T04:38:28;93856.38;;;8.55;100.00
27210;BME280;14721;42.668;23.386;2023-04-04T04:40:54;93871.63;;;8.53;100.00
27210;BME280;14721;42.668;23.386;2023-04-04T04:43:20;93868.50;;;8.38;100.00
27210;BME280;14721;42.668;23.386;2023-04-04T04:45:46;93867.03;;;8.55;100.00
27210;BME280;14721;42.668;23.386;2023-04-04T04:48:11;93875.84;;;8.65;100.00
27210;BME280;14721;42.668;23.386;2023-04-04T04:50:45;93870.00;;;8.80;100.00
27210;BME280;14721;42.668;23.386;2023-04-04T04:53:14;93873.38;;;9.01;100.00
27210;BME280;14721;42.668;23.386;2023-04-04T04:55:39;93875.63;;;9.06;100.00
27210;BME280;14721;42.668;23.386;2023-04-04T04:58:07;93876.19;;;8.81;100.00
27210;BME280;14721;42.668;23.386;2023-04-04T05:00:32;93884.72;;;8.75;100.00
27210;BME280;14721;42.668;23.386;2023-04-04T05:02:58;93890.47;;;8.70;100.00
27210;BME280;14721;42.668;23.386;2023-04-04T05:05:25;93885.69;;;8.74;100.00
27210;BME280;14721;42.668;23.386;2023-04-04T05:07:52;93884.03;;;8.82;100.00
27210;BME280;14721;42.668;23.386;2023-04-04T05:10:18;93877.59;;;8.85;100.00
27210;BME280;14721;42.668;23.386;2023-04-04T05:12:44;93877.03;;;9.00;100.00
27210;BME280;14721;42.668;23.386;2023-04-04T05:15:10;93886.00;;;9.09;100.00
27210;BME280;14721;42.668;23.386;2023-04-04T05:17:37;93900.06;;;9.11;100.00
27210;BME280;14721;42.668;23.386;2023-04-04T05:20:03;93892.72;;;9.13;100.00
27210;BME280;14721;42.668;23.386;2023-04-04T05:22:28;93910.69;;;9.30;100.00
27210;BME280;14721;42.668;23.386;2023-04-04T05:24:54;93907.34;;;9.47;100.00
27210;BME280;14721;42.668;23.386;2023-04-04T05:27:20;93913.34;;;9.68;100.00
27210;BME280;14721;42.668;23.386;2023-04-04T05:29:45;93907.69;;;9.81;100.00
27210;BME280;14721;42.668;23.386;2023-04-04T05:32:12;93902.22;;;9.92;100.00
27210;BME280;14721;42.668;23.386;2023-04-04T05:34:38;93918.09;;;9.84;100.00
27210;BME280;14721;42.668;23.386;2023-04-04T05:37:06;93917.13;;;9.75;100.00
27210;BME280;14721;42.668;23.386;2023-04-04T05:39:32;93912.66;;;9.66;100.00
27210;BME280;14721;42.668;23.386;2023-04-04T05:41:58;93911.78;;;9.85;100.00
27210;BME280;14721;42.668;23.386;2023-04-04T05:44:24;93910.50;;;9.89;100.00
27210;BME280;14721;42.668;23.386;2023-04-04T05:46:49;93916.56;;;9.81;100.00
27210;BME280;14721;42.668;23.386;2023-04-04T05:49:15;93917.41;;;9.82;100.00
27210;BME280;14721;42.668;23.386;2023-04-04T05:51:41;93914.88;;;9.80;100.00
27210;BME280;14721;42.668;23.386;2023-04-04T05:54:06;93921.19;;;9.79;100.00
27210;BME280;14721;42.668;23.386;2023-04-04T05:56:33;93919.38;;;9.70;100.00
27210;BME280;14721;42.668;23.386;2023-04-04T05:58:59;93922.22;;;9.59;100.00
27210;BME280;14721;42.668;23.386;2023-04-04T06:01:25;93919.38;;;9.70;100.00
27210;BME280;14721;42.668;23.386;2023-04-04T06:03:51;93922.69;;;9.91;100.00
27210;BME280;14721;42.668;23.386;2023-04-04T06:06:17;93926.06;;;10.12;100.00
27210;BME280;14721;42.668;23.386;2023-04-04T06:08:43;93921.13;;;10.27;100.00
27210;BME280;14721;42.668;23.386;2023-04-04T06:11:08;93926.97;;;10.30;100.00
27210;BME280;14721;42.668;23.386;2023-04-04T06:13:34;93920.88;;;10.11;100.00
27210;BME280;14721;42.668;23.386;2023-04-04T06:15:59;93926.88;;;10.22;100.00
27210;BME280;14721;42.668;23.386;2023-04-04T06:18:25;93921.84;;;10.19;100.00
27210;BME280;14721;42.668;23.386;2023-04-04T06:20:50;93930.78;;;10.28;100.00
27210;BME280;14721;42.668;23.386;2023-04-04T06:23:16;93935.84;;;10.31;100.00
27210;BME280;14721;42.668;23.386;2023-04-04T06:25:42;93930.66;;;10.29;100.00
27210;BME280;14721;42.668;23.386;2023-04-04T06:28:07;93938.41;;;10.04;100.00
27210;BME280;14721;42.668;23.386;2023-04-04T06:30:36;93939.13;;;9.87;100.00
27210;BME280;14721;42.668;23.386;2023-04-04T06:33:05;93946.56;;;9.93;100.00
27210;BME280;14721;42.668;23.386;2023-04-04T06:35:30;93941.50;;;9.99;100.00
27210;BME280;14721;42.668;23.386;2023-04-04T06:37:56;93953.84;;;10.00;100.00
27210;BME280;14721;42.668;23.386;2023-04-04T06:40:22;93958.94;;;10.13;100.00
27210;BME280;14721;42.668;23.386;2023-04-04T06:42:51;93960.84;;;10.30;100.00
27210;BME280;14721;42.668;23.386;2023-04-04T06:45:18;93969.25;;;10.44;100.00
27210;BME280;14721;42.668;23.386;2023-04-04T06:47:43;93974.97;;;10.49;100.00
27210;BME280;14721;42.668;23.386;2023-04-04T06:50:09;93972.59;;;9.62;100.00
27210;BME280;14721;42.668;23.386;2023-04-04T06:52:35;93979.69;;;9.04;100.00
27210;BME280;14721;42.668;23.386;2023-04-04T06:55:02;93994.34;;;8.50;100.00
27210;BME280;14721;42.668;23.386;2023-04-04T06:57:27;93998.25;;;8.05;100.00
27210;BME280;14721;42.668;23.386;2023-04-04T06:59:53;94021.34;;;7.84;100.00
27210;BME280;14721;42.668;23.386;2023-04-04T07:02:18;94027.00;;;7.69;100.00
27210;BME280;14721;42.668;23.386;2023-04-04T07:04:43;94031.94;;;7.42;100.00
27210;BME280;14721;42.668;23.386;2023-04-04T07:07:10;94040.81;;;7.32;100.00
27210;BME280;14721;42.668;23.386;2023-04-04T07:09:36;94047.59;;;7.25;100.00
27210;BME280;14721;42.668;23.386;2023-04-04T07:12:02;94052.56;;;7.07;100.00
27210;BME280;14721;42.668;23.386;2023-04-04T07:14:28;94059.09;;;6.92;100.00
27210;BME280;14721;42.668;23.386;2023-04-04T07:16:53;94063.22;;;6.85;100.00
27210;BME280;14721;42.668;23.386;2023-04-04T07:19:19;94077.84;;;6.80;100.00
27210;BME280;14721;42.668;23.386;2023-04-04T07:21:44;94081.47;;;6.68;100.00
27210;BME280;14721;42.668;23.386;2023-04-04T07:24:10;94085.53;;;6.61;100.00
27210;BME280;14721;42.668;23.386;2023-04-04T07:26:35;94076.88;;;6.59;100.00
27210;BME280;14721;42.668;23.386;2023-04-04T07:29:01;94098.72;;;6.51;99.11
27210;BME280;14721;42.668;23.386;2023-04-04T07:31:27;94099.41;;;6.42;99.50
27210;BME280;14721;42.668;23.386;2023-04-04T07:33:52;94095.88;;;6.31;100.00
27210;BME280;14721;42.668;23.386;2023-04-04T07:36:18;94103.22;;;6.16;99.65
27210;BME280;14721;42.668;23.386;2023-04-04T07:38:44;94100.06;;;6.00;99.61
27210;BME280;14721;42.668;23.386;2023-04-04T07:41:09;94109.75;;;5.89;99.21
27210;BME280;14721;42.668;23.386;2023-04-04T07:43:36;94103.41;;;5.91;99.54
27210;BME280;14721;42.668;23.386;2023-04-04T07:46:02;94105.81;;;5.94;99.47
27210;BME280;14721;42.668;23.386;2023-04-04T07:48:30;94108.44;;;5.83;98.54
27210;BME280;14721;42.668;23.386;2023-04-04T07:53:41;94105.91;;;5.69;97.78
27210;BME280;14721;42.668;23.386;2023-04-04T07:56:07;94112.69;;;5.73;98.00
27210;BME280;14721;42.668;23.386;2023-04-04T07:58:33;94119.03;;;5.83;98.51
27210;BME280;14721;42.668;23.386;2023-04-04T08:01:00;94122.19;;;5.88;98.54
27210;BME280;14721;42.668;23.386;2023-04-04T08:03:26;94126.19;;;5.94;97.46
27210;BME280;14721;42.668;23.386;2023-04-04T08:05:51;94128.38;;;5.76;96.20
27210;BME280;14721;42.668;23.386;2023-04-04T08:08:17;94150.28;;;5.78;97.45
27210;BME280;14721;42.668;23.386;2023-04-04T08:10:44;94147.44;;;5.57;98.42
27210;BME280;14721;42.668;23.386;2023-04-04T08:13:10;94155.41;;;5.45;100.00
27210;BME280;14721;42.668;23.386;2023-04-04T08:15:36;94155.72;;;5.17;100.00
27210;BME280;14721;42.668;23.386;2023-04-04T08:18:05;94168.59;;;4.98;100.00
27210;BME280;14721;42.668;23.386;2023-04-04T08:20:31;94168.72;;;4.84;100.00
27210;BME280;14721;42.668;23.386;2023-04-04T08:22:56;94175.19;;;4.80;100.00
27210;BME280;14721;42.668;23.386;2023-04-04T08:25:23;94181.66;;;4.76;100.00
27210;BME280;14721;42.668;23.386;2023-04-04T08:27:50;94175.28;;;4.66;100.00
27210;BME280;14721;42.668;23.386;2023-04-04T08:30:18;94182.91;;;4.70;100.00
27210;BME280;14721;42.668;23.386;2023-04-04T08:32:43;94184.81;;;4.56;100.00
27210;BME280;14721;42.668;23.386;2023-04-04T08:35:10;94186.41;;;4.58;100.00
27210;BME280;14721;42.668;23.386;2023-04-04T08:37:36;94192.97;;;4.53;100.00
27210;BME280;14721;42.668;23.386;2023-04-04T08:40:03;94180.59;;;4.53;100.00
27210;BME280;14721;42.668;23.386;2023-04-04T08:42:31;94181.63;;;4.51;100.00
27210;BME280;14721;42.668;23.386;2023-04-04T08:45:00;94185.91;;;4.53;100.00
27210;BME280;14721;42.668;23.386;2023-04-04T08:47:30;94197.31;;;4.66;100.00
27210;BME280;14721;42.668;23.386;2023-04-04T08:49:58;94193.16;;;4.75;100.00
27210;BME280;14721;42.668;23.386;2023-04-04T08:52:27;94204.50;;;4.77;100.00
27210;BME280;14721;42.668;23.386;2023-04-04T08:54:54;94208.28;;;4.85;100.00
27210;BME280;14721;42.668;23.386;2023-04-04T08:57:20;94203.53;;;4.78;100.00
27210;BME280;14721;42.668;23.386;2023-04-04T08:59:46;94215.19;;;4.75;100.00
27210;BME280;14721;42.668;23.386;2023-04-04T09:05:16;94228.81;;;4.57;100.00
27210;BME280;14721;42.668;23.386;2023-04-04T09:07:43;94241.00;;;4.47;100.00
27210;BME280;14721;42.668;23.386;2023-04-04T09:10:09;94239.94;;;4.37;100.00
27210;BME280;14721;42.668;23.386;2023-04-04T09:12:43;94227.75;;;4.34;100.00
27210;BME280;14721;42.668;23.386;2023-04-04T09:15:10;94237.00;;;4.15;100.00
27210;BME280;14721;42.668;23.386;2023-04-04T09:17:35;94225.69;;;4.00;100.00
27210;BME280;14721;42.668;23.386;2023-04-04T09:20:02;94241.97;;;4.07;100.00
27210;BME280;14721;42.668;23.386;2023-04-04T09:22:28;94239.13;;;4.10;100.00
27210;BME280;14721;42.668;23.386;2023-04-04T09:24:55;94241.28;;;4.17;100.00
27210;BME280;14721;42.668;23.386;2023-04-04T09:27:21;94235.69;;;4.22;100.00
27210;BME280;14721;42.668;23.386;2023-04-04T09:29:46;94233.03;;;4.34;100.00
27210;BME280;14721;42.668;23.386;2023-04-04T09:32:15;94222.25;;;4.37;100.00
27210;BME280;14721;42.668;23.386;2023-04-04T09:34:41;94237.50;;;4.59;100.00
27210;BME280;14721;42.668;23.386;2023-04-04T09:37:12;94237.63;;;4.57;100.00
27210;BME280;14721;42.668;23.386;2023-04-04T09:39:39;94247.25;;;4.71;100.00
27210;BME280;14721;42.668;23.386;2023-04-04T09:42:06;94229.28;;;4.76;100.00
27210;BME280;14721;42.668;23.386;2023-04-04T09:44:32;94237.72;;;4.93;100.00
27210;BME280;14721;42.668;23.386;2023-04-04T09:47:24;94230.28;;;5.11;100.00
27210;BME280;14721;42.668;23.386;2023-04-04T09:49:50;94231.53;;;5.18;99.94
27210;BME280;14721;42.668;23.386;2023-04-04T09:52:19;94226.88;;;5.21;99.27
27210;BME280;14721;42.668;23.386;2023-04-04T09:57:22;94237.41;;;5.46;97.58
27210;BME280;14721;42.668;23.386;2023-04-04T09:59:48;94235.72;;;5.58;97.61
27210;BME280;14721;42.668;23.386;2023-04-04T10:02:14;94256.47;;;5.64;97.58
27210;BME280;14721;42.668;23.386;2023-04-04T10:04:41;94259.72;;;5.67;97.58
27210;BME280;14721;42.668;23.386;2023-04-04T10:07:12;94248.00;;;5.59;96.23
27210;BME280;14721;42.668;23.386;2023-04-04T10:09:38;94259.03;;;5.53;95.90
27210;BME280;14721;42.668;23.386;2023-04-04T10:12:07;94270.16;;;5.45;95.25
27210;BME280;14721;42.668;23.386;2023-04-04T10:14:34;94273.91;;;5.30;94.65
27210;BME280;14721;42.668;23.386;2023-04-04T10:17:06;94266.06;;;5.29;94.89
27210;BME280;14721;42.668;23.386;2023-04-04T10:19:33;94269.41;;;5.07;94.09
27210;BME280;14721;42.668;23.386;2023-04-04T10:22:02;94284.31;;;5.08;95.21
27210;BME280;14721;42.668;23.386;2023-04-04T10:24:28;94288.75;;;5.08;95.33
27210;BME280;14721;42.668;23.386;2023-04-04T10:26:54;94286.97;;;5.08;96.11
27210;BME280;14721;42.668;23.386;2023-04-04T10:29:20;94289.94;;;5.04;96.31
27210;BME280;14721;42.668;23.386;2023-04-04T10:31:49;94292.25;;;4.83;96.19
27210;BME280;14721;42.668;23.386;2023-04-04T10:34:26;94292.34;;;4.69;96.19
27210;BME280;14721;42.668;23.386;2023-04-04T10:37:02;94287.91;;;4.82;98.32
27210;BME280;14721;42.668;23.386;2023-04-04T10:39:48;94291.41;;;4.95;99.58
27210;BME280;14721;42.668;23.386;2023-04-04T10:42:18;94291.75;;;4.91;97.67
27210;BME280;14721;42.668;23.386;2023-04-04T10:44:44;94295.66;;;4.98;98.02
27210;BME280;14721;42.668;23.386;2023-04-04T10:47:20;94308.03;;;5.10;98.37
27210;BME280;14721;42.668;23.386;2023-04-04T10:49:50;94310.16;;;5.17;98.28
27210;BME280;14721;42.668;23.386;2023-04-04T10:52:21;94306.75;;;5.28;97.31
27210;BME280;14721;42.668;23.386;2023-04-04T10:54:56;94304.53;;;5.22;95.75
27210;BME280;14721;42.668;23.386;2023-04-04T10:57:23;94308.97;;;5.34;95.59
27210;BME280;14721;42.668;23.386;2023-04-04T11:00:05;94315.97;;;5.35;94.49
27210;BME280;14721;42.668;23.386;2023-04-04T11:03:07;94313.41;;;5.33;95.68
27210;BME280;14721;42.668;23.386;2023-04-04T11:05:37;94321.03;;;5.25;94.29
27210;BME280;14721;42.668;23.386;2023-04-04T11:08:10;94318.81;;;5.19;94.04
27210;BME280;14721;42.668;23.386;2023-04-04T11:10:41;94321.78;;;5.15;93.55
27210;BME280;14721;42.668;23.386;2023-04-04T11:13:14;94319.78;;;5.06;92.52
27210;BME280;14721;42.668;23.386;2023-04-04T11:15:59;94326.44;;;4.99;92.48
27210;BME280;14721;42.668;23.386;2023-04-04T11:26:37;94327.84;;;5.04;94.83
27210;BME280;14721;42.668;23.386;2023-04-04T11:29:06;94319.69;;;5.07;93.72
27210;BME280;14721;42.668;23.386;2023-04-04T11:31:42;94340.31;;;5.27;93.82
27210;BME280;14721;42.668;23.386;2023-04-04T11:34:09;94341.59;;;5.34;93.67
27210;BME280;14721;42.668;23.386;2023-04-04T11:39:14;94339.25;;;5.55;92.27
27210;BME280;14721;42.668;23.386;2023-04-04T11:44:28;94339.88;;;5.21;91.34
27210;BME280;14721;42.668;23.386;2023-04-04T11:47:23;94350.38;;;5.22;92.03
27210;BME280;14721;42.668;23.386;2023-04-04T11:49:49;94346.56;;;5.14;92.64
27210;BME280;14721;42.668;23.386;2023-04-04T11:52:18;94347.94;;;5.19;93.38
27210;BME280;14721;42.668;23.386;2023-04-04T11:54:45;94347.41;;;5.02;92.21
27210;BME280;14721;42.668;23.386;2023-04-04T11:57:12;94339.56;;;5.00;92.90
27210;BME280;14721;42.668;23.386;2023-04-04T11:59:42;94339.56;;;5.00;92.50
27210;BME280;14721;42.668;23.386;2023-04-04T12:02:10;94347.84;;;4.96;91.50
27210;BME280;14721;42.668;23.386;2023-04-04T12:04:37;94343.41;;;5.09;92.65
27210;BME280;14721;42.668;23.386;2023-04-04T12:07:05;94333.13;;;5.04;92.50
27210;BME280;14721;42.668;23.386;2023-04-04T12:09:32;94338.22;;;5.07;91.94
27210;BME280;14721;42.668;23.386;2023-04-04T12:11:58;94340.22;;;5.04;92.21
27210;BME280;14721;42.668;23.386;2023-04-04T12:14:24;94353.88;;;4.98;92.18
27210;BME280;14721;42.668;23.386;2023-04-04T12:16:54;94344.66;;;4.91;91.24
27210;BME280;14721;42.668;23.386;2023-04-04T12:19:22;94350.06;;;4.89;91.40
27210;BME280;14721;42.668;23.386;2023-04-04T12:21:49;94362.03;;;4.95;91.44
27210;BME280;14721;42.668;23.386;2023-04-04T12:24:15;94355.34;;;4.89;90.79
27210;BME280;14721;42.668;23.386;2023-04-04T12:26:42;94355.22;;;4.78;90.91
27210;BME280;14721;42.668;23.386;2023-04-04T12:29:10;94356.09;;;4.79;91.57
27210;BME280;14721;42.668;23.386;2023-04-04T12:31:38;94363.25;;;4.77;92.18
27210;BME280;14721;42.668;23.386;2023-04-04T12:34:06;94349.78;;;4.67;91.82
27210;BME280;14721;42.668;23.386;2023-04-04T12:36:36;94365.00;;;4.51;92.65
27210;BME280;14721;42.668;23.386;2023-04-04T12:39:09;94361.91;;;4.45;93.59
27210;BME280;14721;42.668;23.386;2023-04-04T12:41:56;94368.41;;;4.53;94.36
27210;BME280;14721;42.668;23.386;2023-04-04T12:44:38;94363.63;;;4.46;94.24
27210;BME280;14721;42.668;23.386;2023-04-04T12:47:06;94370.84;;;4.56;94.51
27210;BME280;14721;42.668;23.386;2023-04-04T12:49:38;94364.59;;;4.57;94.64
27210;BME280;14721;42.668;23.386;2023-04-04T12:52:06;94364.13;;;4.51;93.72
27210;BME280;14721;42.668;23.386;2023-04-04T12:54:39;94365.31;;;4.47;93.95
27210;BME280;14721;42.668;23.386;2023-04-04T12:57:05;94375.13;;;4.45;94.08
27210;BME280;14721;42.668;23.386;2023-04-04T12:59:33;94380.81;;;4.39;94.64
27210;BME280;14721;42.668;23.386;2023-04-04T13:02:06;94364.41;;;4.34;94.46
27210;BME280;14721;42.668;23.386;2023-04-04T13:04:33;94379.56;;;4.18;93.64
27210;BME280;14721;42.668;23.386;2023-04-04T13:06:59;94384.63;;;4.35;93.85
27210;BME280;14721;42.668;23.386;2023-04-04T13:09:26;94392.38;;;4.24;92.46
27210;BME280;14721;42.668;23.386;2023-04-04T13:14:20;94392.94;;;4.02;92.76
27210;BME280;14721;42.668;23.386;2023-04-04T13:17:00;94405.28;;;4.02;92.45
27210;BME280;14721;42.668;23.386;2023-04-04T13:19:27;94404.03;;;4.07;94.09
27210;BME280;14721;42.668;23.386;2023-04-04T13:21:52;94392.53;;;4.08;93.78